Terminal Aerodrome Forecast
Issued by NWS

Home | Current Version | Previous Version | Text Only | Print | Product List | Glossary On
Versions: 1 2 3 4 5 6 7 8 9 10 11 12 13 14 15
000
FTUS46 KHNX 061518 AAA
TAFFAT
TAF AMD
KFAT 061518Z 0615/0712 24005KT P6SM FEW008 OVC015
     FM061800 VRB04KT P6SM VCSH BKN040
     FM070600 VRB04KT P6SM OVC050 PROB30 0706/0709 P6SM -RA=

USA.gov is the U.S. government's official web portal to all federal, state and local government web resources and services.